createdAt,value
2019-04-30T00:00:59.103Z,0.40
2019-04-30T00:03:29.313Z,0.30
2019-04-30T00:05:58.143Z,0.30
2019-04-30T00:08:30.223Z,0.30
2019-04-30T00:10:57.273Z,0.30
2019-04-30T00:13:25.998Z,0.30
2019-04-30T00:15:58.697Z,0.30
2019-04-30T00:18:25.440Z,0.30
2019-04-30T00:20:55.340Z,0.30
2019-04-30T00:23:29.323Z,0.30
2019-04-30T00:25:58.206Z,0.30
2019-04-30T00:28:25.550Z,0.30
2019-04-30T00:30:56.266Z,0.37
2019-04-30T00:33:27.502Z,0.30
2019-04-30T00:35:58.007Z,0.35
2019-04-30T00:38:25.519Z,0.40
2019-04-30T00:40:55.751Z,0.30
2019-04-30T00:43:25.273Z,0.30
2019-04-30T00:45:55.142Z,0.40
2019-04-30T00:48:28.173Z,0.30
2019-04-30T00:50:55.819Z,0.30
2019-04-30T00:53:26.257Z,0.40
2019-04-30T00:55:57.063Z,0.40
2019-04-30T00:58:30.302Z,0.40
2019-04-30T01:00:59.810Z,0.20
2019-04-30T01:03:29.668Z,0.35
2019-04-30T01:05:58.230Z,0.30
2019-04-30T01:08:28.569Z,0.30
2019-04-30T01:10:59.823Z,0.30
2019-04-30T01:13:29.045Z,0.40
2019-04-30T01:15:58.786Z,0.40
2019-04-30T01:18:28.537Z,0.30
2019-04-30T01:20:58.655Z,0.30
2019-04-30T01:23:29.518Z,0.40
2019-04-30T01:25:58.579Z,0.50
2019-04-30T01:28:28.429Z,0.40
2019-04-30T01:31:01.917Z,0.50
2019-04-30T01:33:34.506Z,0.40
2019-04-30T01:36:04.029Z,0.30
2019-04-30T01:38:30.658Z,0.40
2019-04-30T01:40:59.629Z,0.30
2019-04-30T01:43:33.159Z,0.40
2019-04-30T01:46:03.249Z,0.30
2019-04-30T01:48:29.299Z,0.40
2019-04-30T01:50:58.633Z,1.20
2019-04-30T01:53:28.608Z,1.57
2019-04-30T01:55:59.264Z,0.90
2019-04-30T01:58:33.437Z,1.37
2019-04-30T02:01:03.855Z,1.72
2019-04-30T02:03:32.480Z,3.40
2019-04-30T02:06:01.107Z,1.32
2019-04-30T02:08:29.875Z,0.50
2019-04-30T02:10:59.473Z,0.50
2019-04-30T02:13:29.523Z,0.75
2019-04-30T02:15:59.233Z,1.70
2019-04-30T02:18:29.688Z,1.27
2019-04-30T02:20:59.528Z,0.50
2019-04-30T02:23:29.697Z,0.60
2019-04-30T02:25:59.096Z,0.50
2019-04-30T02:28:29.025Z,0.40
2019-04-30T02:31:00.341Z,0.40
2019-04-30T02:33:30.739Z,0.40
2019-04-30T02:36:03.653Z,0.40
2019-04-30T02:38:33.183Z,0.50
2019-04-30T02:41:03.027Z,0.40
2019-04-30T02:43:33.766Z,0.40
2019-04-30T02:46:04.267Z,0.50
2019-04-30T02:48:33.899Z,0.60
2019-04-30T02:51:05.232Z,0.40
2019-04-30T02:53:51.230Z,0.50
2019-04-30T02:56:26.347Z,0.45
2019-04-30T02:58:52.977Z,0.50
2019-04-30T03:01:21.615Z,0.40
2019-04-30T03:03:50.402Z,0.50
2019-04-30T03:06:20.505Z,0.60
2019-04-30T03:08:51.138Z,0.50
2019-04-30T03:11:20.682Z,0.60
2019-04-30T03:13:49.773Z,0.50
2019-04-30T03:16:20.953Z,0.50
2019-04-30T03:18:53.980Z,0.60
2019-04-30T03:21:24.171Z,0.65
2019-04-30T03:23:52.801Z,0.65
2019-04-30T03:26:21.388Z,0.90
2019-04-30T03:28:49.887Z,0.93
2019-04-30T03:31:22.581Z,2.45
2019-04-30T03:33:52.309Z,1.00
2019-04-30T03:36:21.630Z,1.37
2019-04-30T03:38:50.018Z,0.85
2019-04-30T03:41:19.806Z,0.90
2019-04-30T03:43:50.338Z,0.70
2019-04-30T03:46:19.511Z,0.88
2019-04-30T03:48:50.327Z,0.80
2019-04-30T03:51:19.888Z,0.60
2019-04-30T03:53:50.136Z,0.55
2019-04-30T03:56:20.036Z,0.70
2019-04-30T03:58:50.362Z,0.68
2019-04-30T04:01:26.224Z,0.90
2019-04-30T04:04:04.962Z,0.93
2019-04-30T04:06:35.283Z,1.00
2019-04-30T04:09:25.192Z,1.30
2019-04-30T04:11:53.874Z,1.15
2019-04-30T04:14:22.376Z,3.22
2019-04-30T04:16:51.197Z,0.88
2019-04-30T04:19:19.980Z,1.32
2019-04-30T04:21:51.026Z,2.35
2019-04-30T04:24:20.484Z,0.95
2019-04-30T04:26:50.214Z,1.15
2019-04-30T04:29:19.786Z,1.30
2019-04-30T04:31:50.253Z,11.95
2019-04-30T04:34:19.824Z,2.47
2019-04-30T04:36:50.461Z,3.45
2019-04-30T04:39:20.245Z,3.98
2019-04-30T04:41:50.276Z,3.40
2019-04-30T04:44:20.362Z,0.95
2019-04-30T04:46:50.397Z,0.60
2019-04-30T04:49:20.628Z,0.60
2019-04-30T04:51:49.626Z,2.25
2019-04-30T04:54:20.250Z,1.10
2019-04-30T04:56:52.898Z,1.00
2019-04-30T04:59:20.139Z,0.88
2019-04-30T05:01:49.145Z,1.45
2019-04-30T05:04:19.978Z,1.02
2019-04-30T05:06:49.880Z,0.60
2019-04-30T05:09:19.494Z,0.80
2019-04-30T05:11:48.731Z,1.40
2019-04-30T05:14:18.976Z,0.98
2019-04-30T05:16:48.767Z,0.80
2019-04-30T05:19:18.685Z,0.80
2019-04-30T05:21:49.510Z,1.00
2019-04-30T05:24:19.043Z,1.20
2019-04-30T05:26:48.731Z,2.00
2019-04-30T05:29:19.084Z,1.25
2019-04-30T05:31:48.609Z,1.05
2019-04-30T05:34:18.847Z,1.25
2019-04-30T05:36:48.967Z,0.80
2019-04-30T05:39:18.838Z,1.37
2019-04-30T05:41:49.204Z,1.35
2019-04-30T05:44:18.490Z,0.70
2019-04-30T05:46:49.277Z,1.30
2019-04-30T05:49:18.852Z,1.50
2019-04-30T05:51:55.581Z,1.50
2019-04-30T05:54:19.007Z,1.60
2019-04-30T05:56:49.301Z,2.95
2019-04-30T05:59:20.439Z,1.70
2019-04-30T06:01:50.698Z,1.95
2019-04-30T06:04:19.375Z,2.27
2019-04-30T06:06:49.060Z,2.10
2019-04-30T06:09:33.234Z,2.45
2019-04-30T06:11:54.682Z,2.58
2019-04-30T06:14:28.663Z,2.95
2019-04-30T06:17:09.726Z,2.75
2019-04-30T06:19:39.207Z,6.20
2019-04-30T06:22:10.581Z,2.80
2019-04-30T06:24:39.582Z,2.50
2019-04-30T06:27:10.531Z,2.15
2019-04-30T06:29:39.268Z,2.95
2019-04-30T06:32:08.689Z,2.20
2019-04-30T06:34:39.495Z,2.58
2019-04-30T06:37:09.803Z,2.55
2019-04-30T06:39:38.738Z,2.80
2019-04-30T06:42:12.224Z,2.05
2019-04-30T06:44:41.679Z,2.42
2019-04-30T06:47:09.513Z,3.00
2019-04-30T06:49:39.385Z,3.00
2019-04-30T06:52:19.545Z,2.87
2019-04-30T06:54:39.739Z,2.80
2019-04-30T06:57:09.674Z,2.50
2019-04-30T06:59:39.625Z,2.70
2019-04-30T07:02:09.102Z,2.20
2019-04-30T07:04:39.997Z,2.90
2019-04-30T07:07:09.113Z,2.98
2019-04-30T07:09:53.198Z,2.65
2019-04-30T07:12:27.154Z,1.95
2019-04-30T07:14:50.745Z,1.92
2019-04-30T07:17:19.585Z,2.10
2019-04-30T07:19:54.245Z,2.20
2019-04-30T07:22:20.677Z,2.30
2019-04-30T07:24:49.674Z,2.85
2019-04-30T07:27:23.744Z,3.00
2019-04-30T07:29:49.562Z,1.65
2019-04-30T07:32:19.678Z,1.52
2019-04-30T07:34:49.539Z,1.95
2019-04-30T07:39:49.361Z,1.60
2019-04-30T07:42:19.217Z,1.50
2019-04-30T07:44:50.218Z,1.32
2019-04-30T07:47:19.506Z,1.50
2019-04-30T07:49:54.903Z,0.80
2019-04-30T07:52:21.349Z,0.88
2019-04-30T07:54:51.566Z,1.10
2019-04-30T07:57:19.442Z,1.45
2019-04-30T07:59:49.928Z,1.00
2019-04-30T08:02:20.849Z,0.80
2019-04-30T08:04:51.099Z,0.30
2019-04-30T08:07:20.533Z,0.40
2019-04-30T08:09:34.989Z,1.60
2019-04-30T08:09:49.555Z,0.40
2019-04-30T08:12:26.059Z,0.62
2019-04-30T08:14:49.575Z,0.40
2019-04-30T08:17:18.929Z,0.53
2019-04-30T08:19:49.025Z,0.60
2019-04-30T08:22:19.630Z,0.40
2019-04-30T08:24:49.167Z,0.60
2019-04-30T08:27:19.687Z,0.33
2019-04-30T08:29:49.895Z,0.45
2019-04-30T08:32:19.184Z,0.60
2019-04-30T08:34:49.970Z,0.62
2019-04-30T08:37:20.158Z,0.78
2019-04-30T08:39:49.714Z,0.60
2019-04-30T08:42:28.929Z,0.60
2019-04-30T08:44:48.925Z,0.75
2019-04-30T08:47:20.903Z,0.50
2019-04-30T08:49:49.979Z,0.90
2019-04-30T08:52:19.523Z,0.60
2019-04-30T08:54:49.629Z,0.60
2019-04-30T08:57:19.211Z,0.62
2019-04-30T08:59:49.513Z,0.53
2019-04-30T09:02:19.692Z,0.60
2019-04-30T09:04:50.261Z,0.85
2019-04-30T09:07:19.633Z,0.50
2019-04-30T09:09:48.944Z,0.50
2019-04-30T09:12:19.576Z,1.10
2019-04-30T09:14:49.048Z,0.60
2019-04-30T09:17:19.671Z,0.62
2019-04-30T09:19:49.031Z,0.88
2019-04-30T09:22:19.484Z,0.40
2019-04-30T09:24:49.784Z,0.65
2019-04-30T09:27:19.519Z,0.50
2019-04-30T09:29:49.167Z,0.40
2019-04-30T09:32:19.344Z,0.50
2019-04-30T09:34:48.783Z,0.50
2019-04-30T09:37:18.698Z,0.40
2019-04-30T09:39:49.446Z,0.80
2019-04-30T09:42:19.546Z,0.30
2019-04-30T09:44:49.298Z,0.30
2019-04-30T09:47:20.114Z,0.20
2019-04-30T09:49:49.331Z,0.30
2019-04-30T09:52:19.536Z,0.30
2019-04-30T09:54:50.080Z,0.13
2019-04-30T09:57:19.284Z,0.20
2019-04-30T09:59:48.708Z,0.50
2019-04-30T10:02:19.091Z,0.25
2019-04-30T10:04:48.424Z,0.30
2019-04-30T10:07:19.369Z,0.20
2019-04-30T10:09:50.672Z,0.30
2019-04-30T10:12:19.599Z,0.20
2019-04-30T10:14:49.555Z,0.20
2019-04-30T10:17:19.856Z,0.30
2019-04-30T10:19:49.197Z,0.30
2019-04-30T10:22:18.038Z,0.30
2019-04-30T10:24:46.594Z,0.20
2019-04-30T10:27:15.349Z,0.30
2019-04-30T10:29:44.208Z,0.40
2019-04-30T10:32:13.056Z,0.30
2019-04-30T10:34:41.544Z,0.20
2019-04-30T10:37:12.087Z,0.50
2019-04-30T10:39:40.731Z,0.90
2019-04-30T10:42:09.448Z,0.78
2019-04-30T10:44:38.133Z,0.80
2019-04-30T10:47:06.695Z,0.70
2019-04-30T10:49:35.435Z,0.50
2019-04-30T10:52:04.263Z,0.30
2019-04-30T10:54:32.885Z,0.40
2019-04-30T10:57:01.442Z,0.40
2019-04-30T10:59:29.999Z,0.40
2019-04-30T11:01:59.181Z,0.30
2019-04-30T11:04:28.091Z,0.40
2019-04-30T11:07:00.042Z,0.30
2019-04-30T11:09:30.701Z,0.30
2019-04-30T11:12:02.878Z,0.40
2019-04-30T11:14:30.562Z,0.30
2019-04-30T11:16:59.934Z,0.30
2019-04-30T11:19:29.407Z,0.30
2019-04-30T11:21:58.568Z,0.30
2019-04-30T11:24:36.556Z,0.20
2019-04-30T11:26:59.941Z,0.30
2019-04-30T11:29:30.630Z,0.30
2019-04-30T11:32:06.156Z,0.30
2019-04-30T11:34:34.830Z,0.35
2019-04-30T11:37:03.390Z,0.72
2019-04-30T11:39:32.099Z,0.20
2019-04-30T11:42:00.700Z,0.20
2019-04-30T11:44:31.447Z,0.30
2019-04-30T11:47:02.459Z,0.20
2019-04-30T11:49:31.133Z,0.30
2019-04-30T11:51:59.757Z,0.30
2019-04-30T11:54:29.913Z,0.20
2019-04-30T11:56:58.890Z,0.20
2019-04-30T11:59:29.598Z,0.33
2019-04-30T12:01:59.529Z,0.20
2019-04-30T12:04:29.831Z,0.40
2019-04-30T12:07:00.251Z,0.35
2019-04-30T12:09:30.515Z,0.40
2019-04-30T12:11:59.108Z,0.60
2019-04-30T12:14:29.729Z,0.30
2019-04-30T12:16:58.172Z,0.40
2019-04-30T12:19:28.617Z,0.30
2019-04-30T12:21:56.977Z,0.30
2019-04-30T12:24:25.598Z,0.30
2019-04-30T12:26:54.209Z,0.20
2019-04-30T12:29:22.797Z,0.30
2019-04-30T12:31:51.365Z,0.23
2019-04-30T12:34:20.250Z,0.30
2019-04-30T12:36:49.692Z,0.30
2019-04-30T12:39:18.246Z,0.20
2019-04-30T12:41:48.812Z,0.20
2019-04-30T12:44:17.033Z,0.30
2019-04-30T12:46:45.662Z,0.30
2019-04-30T12:49:14.323Z,0.30
2019-04-30T12:51:45.792Z,0.10
2019-04-30T12:54:25.284Z,0.20
2019-04-30T12:57:10.855Z,0.30
2019-04-30T12:59:37.792Z,0.30
2019-04-30T13:02:06.419Z,0.20
2019-04-30T13:04:34.999Z,0.20
2019-04-30T13:07:04.427Z,0.20
2019-04-30T13:09:33.816Z,0.20
2019-04-30T13:12:03.526Z,0.20
2019-04-30T13:14:33.581Z,0.30
2019-04-30T13:17:02.729Z,0.20
2019-04-30T13:19:31.303Z,0.20
2019-04-30T13:21:59.900Z,0.20
2019-04-30T13:24:31.081Z,0.10
2019-04-30T13:26:59.487Z,0.20
2019-04-30T13:29:32.618Z,0.20
2019-04-30T13:32:01.185Z,0.20
2019-04-30T13:34:47.536Z,0.30
2019-04-30T13:37:16.157Z,0.20
2019-04-30T13:40:03.013Z,0.30
2019-04-30T13:42:45.263Z,0.10
2019-04-30T13:45:14.318Z,0.20
2019-04-30T13:47:42.951Z,0.40
2019-04-30T13:50:12.237Z,0.20
2019-04-30T13:52:40.840Z,0.50
2019-04-30T13:55:10.959Z,0.10
2019-04-30T13:57:39.691Z,0.10
2019-04-30T14:00:13.909Z,0.10
2019-04-30T14:02:44.886Z,0.17
2019-04-30T14:05:15.219Z,0.20
2019-04-30T14:07:49.709Z,0.17
2019-04-30T14:10:19.563Z,0.20
2019-04-30T14:12:50.065Z,0.40
2019-04-30T14:15:19.281Z,0.20
2019-04-30T14:17:49.393Z,0.20
2019-04-30T14:20:18.129Z,0.13
2019-04-30T14:22:46.729Z,0.20
2019-04-30T14:25:15.878Z,0.20
2019-04-30T14:27:51.819Z,0.20
2019-04-30T14:30:15.295Z,0.20
2019-04-30T14:32:43.955Z,0.20
2019-04-30T14:35:12.787Z,0.10
2019-04-30T14:37:41.452Z,0.30
2019-04-30T14:40:12.919Z,0.17
2019-04-30T14:42:43.103Z,0.20
2019-04-30T14:45:17.352Z,0.10
2019-04-30T14:47:51.477Z,0.30
2019-04-30T14:50:22.228Z,0.13
2019-04-30T14:52:52.429Z,0.30
2019-04-30T14:55:31.674Z,0.20
2019-04-30T14:58:20.444Z,0.20
2019-04-30T15:00:55.974Z,0.20
2019-04-30T15:03:32.300Z,0.20
2019-04-30T15:06:00.968Z,0.20
2019-04-30T15:08:29.535Z,0.40
2019-04-30T15:10:59.019Z,0.30
2019-04-30T15:13:29.542Z,0.20
2019-04-30T15:15:58.035Z,0.10
2019-04-30T15:18:26.602Z,0.20
2019-04-30T15:20:55.285Z,0.20
2019-04-30T15:23:34.523Z,0.30
2019-04-30T15:26:03.195Z,0.50
2019-04-30T15:28:32.780Z,0.50
2019-04-30T15:31:01.428Z,0.70
2019-04-30T15:33:34.652Z,0.40
2019-04-30T15:36:06.513Z,0.30
2019-04-30T15:38:52.519Z,0.30
2019-04-30T15:41:21.653Z,0.40
2019-04-30T15:43:50.274Z,0.20
2019-04-30T15:46:19.013Z,0.10
2019-04-30T15:48:47.650Z,0.23
2019-04-30T15:51:16.302Z,0.30
2019-04-30T15:53:45.072Z,0.20
2019-04-30T15:56:13.696Z,0.20
2019-04-30T15:58:56.117Z,0.30
2019-04-30T16:01:24.819Z,0.20
2019-04-30T16:03:54.946Z,0.30
2019-04-30T16:06:23.471Z,1.00
2019-04-30T16:08:56.475Z,0.70
2019-04-30T16:11:43.211Z,0.95
2019-04-30T16:14:31.636Z,0.80
2019-04-30T16:17:10.643Z,0.40
2019-04-30T16:19:39.271Z,0.40
2019-04-30T16:22:08.004Z,0.55
2019-04-30T16:24:38.546Z,0.70
2019-04-30T16:27:09.143Z,2.08
2019-04-30T16:29:40.358Z,5.05
2019-04-30T16:32:09.248Z,5.92
2019-04-30T16:34:38.899Z,4.47
2019-04-30T16:37:07.808Z,1.10
2019-04-30T16:39:36.435Z,0.60
2019-04-30T16:42:05.167Z,0.72
2019-04-30T16:44:33.844Z,0.40
2019-04-30T16:47:13.079Z,0.40
2019-04-30T16:49:32.768Z,0.40
2019-04-30T16:52:01.662Z,0.60
2019-04-30T16:54:30.412Z,0.78
2019-04-30T16:57:05.943Z,0.70
2019-04-30T16:59:31.081Z,0.53
2019-04-30T17:02:00.523Z,0.60
2019-04-30T17:04:33.938Z,1.00
2019-04-30T17:07:13.541Z,1.00
2019-04-30T17:09:59.106Z,1.00
2019-04-30T17:12:35.074Z,1.20
2019-04-30T17:15:21.843Z,1.27
2019-04-30T17:17:50.512Z,0.80
2019-04-30T17:20:20.925Z,1.25
2019-04-30T17:22:50.421Z,1.12
2019-04-30T17:25:19.379Z,1.85
2019-04-30T17:27:48.642Z,0.90
2019-04-30T17:30:19.336Z,0.70
2019-04-30T17:32:49.669Z,0.50
2019-04-30T17:35:19.028Z,0.50
2019-04-30T17:37:47.696Z,0.80
2019-04-30T17:40:16.765Z,1.55
2019-04-30T17:42:45.420Z,1.40
2019-04-30T17:45:15.278Z,0.93
2019-04-30T17:47:43.877Z,0.55
2019-04-30T17:50:12.610Z,0.75
2019-04-30T17:52:41.242Z,0.60
2019-04-30T17:55:10.455Z,0.50
2019-04-30T17:57:40.286Z,0.60
2019-04-30T18:00:18.897Z,0.60
2019-04-30T18:02:41.791Z,0.60
2019-04-30T18:05:11.441Z,0.30
2019-04-30T18:07:40.326Z,0.30
2019-04-30T18:10:11.021Z,0.40
2019-04-30T18:12:39.605Z,0.30
2019-04-30T18:15:12.782Z,0.30
2019-04-30T18:17:43.236Z,0.30
2019-04-30T18:20:31.546Z,0.20
2019-04-30T18:23:01.722Z,0.30
2019-04-30T18:25:44.045Z,0.30
2019-04-30T18:28:12.723Z,0.30
2019-04-30T18:30:41.785Z,0.30
2019-04-30T18:33:10.349Z,0.30
2019-04-30T18:35:39.040Z,0.20
2019-04-30T18:38:09.638Z,0.20
2019-04-30T18:40:39.805Z,0.20
2019-04-30T18:43:08.623Z,0.30
2019-04-30T18:45:39.356Z,0.20
2019-04-30T18:48:09.562Z,0.23
2019-04-30T18:50:38.044Z,0.20
2019-04-30T18:53:08.734Z,0.20
2019-04-30T18:55:37.392Z,0.20
2019-04-30T18:58:06.324Z,0.30
2019-04-30T19:00:39.404Z,0.20
2019-04-30T19:03:08.667Z,0.20
2019-04-30T19:05:39.348Z,0.20
2019-04-30T19:08:15.354Z,0.35
2019-04-30T19:10:58.879Z,0.40
2019-04-30T19:13:29.941Z,0.25
2019-04-30T19:16:24.687Z,0.20
2019-04-30T19:19:09.342Z,0.37
2019-04-30T19:21:40.248Z,0.40
2019-04-30T19:24:08.702Z,0.40
2019-04-30T19:26:38.857Z,0.40
2019-04-30T19:29:07.886Z,0.45
2019-04-30T19:31:36.752Z,0.85
2019-04-30T19:34:05.306Z,0.80
2019-04-30T19:36:37.316Z,0.40
2019-04-30T19:39:05.861Z,0.50
2019-04-30T19:41:34.555Z,0.45
2019-04-30T19:44:03.094Z,0.40
2019-04-30T19:46:31.697Z,0.20
2019-04-30T19:49:00.471Z,0.30
2019-04-30T19:51:29.606Z,0.30
2019-04-30T19:53:59.870Z,0.30
2019-04-30T19:56:30.338Z,0.30
2019-04-30T19:59:04.813Z,0.42
2019-04-30T20:01:29.377Z,0.40
2019-04-30T20:03:58.790Z,0.30
2019-04-30T20:06:28.706Z,0.20
2019-04-30T20:08:58.818Z,0.30
2019-04-30T20:11:27.721Z,0.30
2019-04-30T20:13:56.375Z,0.30
2019-04-30T20:16:24.853Z,0.30
2019-04-30T20:18:53.512Z,0.20
2019-04-30T20:21:28.717Z,0.20
2019-04-30T20:23:54.286Z,0.30
2019-04-30T20:26:22.773Z,0.20
2019-04-30T20:28:51.327Z,0.20
2019-04-30T20:31:19.957Z,0.20
2019-04-30T20:33:49.021Z,0.30
2019-04-30T20:36:19.055Z,0.30
2019-04-30T20:38:55.178Z,0.30
2019-04-30T20:41:25.445Z,0.30
2019-04-30T20:43:54.151Z,0.40
2019-04-30T20:46:31.433Z,0.30
2019-04-30T20:48:52.893Z,0.40
2019-04-30T20:51:21.521Z,0.40
2019-04-30T20:53:50.182Z,0.40
2019-04-30T20:56:19.199Z,0.30
2019-04-30T20:58:55.636Z,0.33
2019-04-30T21:01:19.352Z,0.40
2019-04-30T21:03:48.213Z,0.40
2019-04-30T21:06:16.765Z,0.60
2019-04-30T21:08:45.430Z,0.50
2019-04-30T21:11:14.056Z,0.55
2019-04-30T21:13:42.678Z,0.30
2019-04-30T21:16:11.273Z,0.40
2019-04-30T21:18:39.827Z,0.30
2019-04-30T21:21:08.449Z,0.10
2019-04-30T21:23:39.130Z,0.30
2019-04-30T21:26:08.576Z,0.30
2019-04-30T21:28:39.208Z,0.25
2019-04-30T21:31:25.587Z,0.20
2019-04-30T21:33:58.118Z,0.23
2019-04-30T21:36:28.493Z,0.20
2019-04-30T21:38:58.959Z,0.30
2019-04-30T21:41:29.672Z,0.40
2019-04-30T21:43:57.903Z,0.40
2019-04-30T21:46:26.561Z,0.60
2019-04-30T21:48:55.188Z,0.70
2019-04-30T21:51:23.736Z,0.55
2019-04-30T21:53:52.263Z,0.50
2019-04-30T21:56:20.887Z,0.60
2019-04-30T21:58:49.526Z,0.40
2019-04-30T22:01:19.948Z,0.50
2019-04-30T22:03:48.574Z,0.60
2019-04-30T22:06:17.249Z,0.50
2019-04-30T22:08:45.848Z,0.60
2019-04-30T22:11:14.471Z,0.55
2019-04-30T22:13:43.329Z,0.75
2019-04-30T22:16:12.045Z,0.62
2019-04-30T22:18:40.604Z,1.52
2019-04-30T22:21:09.223Z,0.55
2019-04-30T22:23:37.950Z,0.53
2019-04-30T22:26:06.512Z,0.40
2019-04-30T22:28:35.013Z,0.50
2019-04-30T22:31:03.839Z,0.45
2019-04-30T22:33:32.466Z,0.30
2019-04-30T22:36:11.750Z,0.30
2019-04-30T22:38:41.933Z,0.30
2019-04-30T22:41:10.556Z,0.30
2019-04-30T22:43:39.156Z,0.30
2019-04-30T22:46:09.841Z,0.30
2019-04-30T22:48:38.520Z,0.20
2019-04-30T22:51:07.180Z,0.30
2019-04-30T22:53:36.500Z,0.20
2019-04-30T22:56:05.252Z,0.20
2019-04-30T22:58:33.979Z,0.20
2019-04-30T23:01:10.295Z,0.20
2019-04-30T23:03:38.897Z,0.20
2019-04-30T23:06:07.522Z,0.20
2019-04-30T23:08:36.148Z,0.30
2019-04-30T23:11:04.929Z,0.20
2019-04-30T23:13:33.480Z,0.20
2019-04-30T23:16:02.509Z,0.10
2019-04-30T23:18:32.246Z,0.10
2019-04-30T23:21:01.089Z,0.10
2019-04-30T23:23:29.711Z,0.20
2019-04-30T23:25:58.293Z,0.10
2019-04-30T23:28:26.803Z,0.10
2019-04-30T23:30:55.404Z,0.10
2019-04-30T23:33:24.071Z,0.10
2019-04-30T23:35:52.635Z,0.20
2019-04-30T23:38:21.117Z,0.20
2019-04-30T23:40:51.648Z,0.10
2019-04-30T23:43:20.970Z,0.10
2019-04-30T23:45:49.714Z,0.30
2019-04-30T23:48:18.385Z,0.20
2019-04-30T23:50:47.156Z,0.20
2019-04-30T23:53:15.734Z,0.10
2019-04-30T23:55:44.406Z,0.10
2019-04-30T23:58:12.964Z,0.10
